Time;durP1;ratioP1;P1;durP2;ratioP2;P2;SDS_P1;SDS_P2;PMS_P1;PMS_P2;Temp;Humidity;BMP_temperature;BMP_pressure;BME280_temperature;BME280_humidity;BME280_pressure;Samples;Min_cycle;Max_cycle;Signal;HPM_P1;HPM_P2
2024/02/17 00:02:07;;;;;;;7.30;6.50;;;10.90;99.90;;;;;;5040439;28;20468;-36
2024/02/17 00:04:33;;;;;;;7.13;6.40;;;10.90;99.90;;;;;;5039309;28;20033;-35
2024/02/17 00:06:59;;;;;;;6.90;6.30;;;10.80;99.90;;;;;;5040064;28;20483;-32
2024/02/17 00:09:24;;;;;;;7.40;6.50;;;10.80;99.90;;;;;;5040326;28;20021;-32
2024/02/17 00:11:53;;;;;;;9.43;6.72;;;10.80;99.90;;;;;;5039313;28;20126;-38
2024/02/17 00:14:18;;;;;;;7.43;5.95;;;10.70;99.90;;;;;;5039671;28;20029;-33
2024/02/17 00:16:44;;;;;;;7.25;6.13;;;10.70;99.90;;;;;;5040302;28;20047;-34
2024/02/17 00:19:09;;;;;;;7.43;6.68;;;10.60;99.90;;;;;;5038392;28;20151;-33
2024/02/17 00:21:35;;;;;;;7.50;6.70;;;10.60;99.90;;;;;;5039382;28;20143;-35
2024/02/17 00:24:04;;;;;;;8.30;7.20;;;10.70;99.90;;;;;;5040027;28;20067;-36
2024/02/17 00:26:30;;;;;;;7.80;6.95;;;10.70;99.90;;;;;;5027865;28;20775;-36
2024/02/17 00:28:57;;;;;;;7.85;6.38;;;10.80;99.90;;;;;;5039521;28;20029;-35
2024/02/17 00:31:23;;;;;;;8.05;6.68;;;10.80;99.90;;;;;;5039444;28;20021;-33
2024/02/17 00:33:49;;;;;;;9.40;7.78;;;10.80;99.90;;;;;;5038734;28;20452;-34
2024/02/17 00:36:15;;;;;;;8.23;7.03;;;10.80;99.90;;;;;;5039603;28;20082;-36
2024/02/17 00:38:40;;;;;;;9.20;6.85;;;10.80;99.90;;;;;;5039542;28;20037;-35
2024/02/17 00:41:09;;;;;;;7.53;6.63;;;10.80;99.90;;;;;;5038854;28;20055;-37
2024/02/17 00:43:34;;;;;;;8.25;6.72;;;10.80;99.90;;;;;;5039725;28;20029;-34
2024/02/17 00:46:00;;;;;;;10.63;6.95;;;10.80;99.90;;;;;;5038966;28;20032;-37
2024/02/17 00:48:26;;;;;;;10.32;7.18;;;10.80;99.90;;;;;;5038969;28;20029;-35
2024/02/17 00:50:52;;;;;;;8.07;6.90;;;10.80;99.90;;;;;;5039385;28;20029;-38
2024/02/17 00:53:18;;;;;;;10.23;7.55;;;10.80;99.90;;;;;;5038785;28;20080;-35
2024/02/17 00:55:43;;;;;;;8.40;6.22;;;10.80;99.90;;;;;;5039048;28;20029;-35
2024/02/17 00:58:11;;;;;;;12.63;7.63;;;10.90;99.90;;;;;;5039771;28;20305;-37
2024/02/17 01:00:37;;;;;;;9.05;7.60;;;10.90;99.90;;;;;;5038303;28;20067;-36
2024/02/17 01:03:03;;;;;;;7.95;6.80;;;10.90;99.90;;;;;;5039071;28;20103;-33
2024/02/17 01:05:29;;;;;;;7.97;6.82;;;10.90;99.90;;;;;;5038808;28;20040;-33
2024/02/17 01:07:58;;;;;;;9.55;7.45;;;10.90;99.90;;;;;;5037663;28;20025;-33
2024/02/17 01:10:23;;;;;;;8.57;7.00;;;10.90;99.90;;;;;;5037859;28;20413;-36
2024/02/17 01:12:49;;;;;;;8.52;7.03;;;10.90;99.90;;;;;;5039019;28;20460;-36
2024/02/17 01:15:15;;;;;;;8.75;7.32;;;10.90;99.90;;;;;;5038031;28;20102;-35
2024/02/17 01:17:40;;;;;;;10.35;6.57;;;10.90;99.90;;;;;;5039317;28;20017;-34
2024/02/17 01:20:07;;;;;;;8.23;6.75;;;10.90;99.90;;;;;;5039122;28;20105;-36
2024/02/17 01:22:32;;;;;;;9.70;7.15;;;10.90;99.90;;;;;;5038906;28;20044;-35
2024/02/17 01:24:58;;;;;;;11.25;7.25;;;10.80;99.90;;;;;;5039362;28;20736;-35
2024/02/17 01:27:23;;;;;;;8.05;6.90;;;10.90;99.90;;;;;;5038579;28;20057;-34
2024/02/17 01:29:49;;;;;;;7.47;6.32;;;10.90;99.90;;;;;;5037446;28;20071;-36
2024/02/17 01:32:15;;;;;;;8.35;6.40;;;10.90;99.90;;;;;;5037396;28;20144;-38
2024/02/17 01:34:40;;;;;;;7.13;6.43;;;10.80;99.90;;;;;;5037960;28;20036;-35
2024/02/17 01:37:06;;;;;;;6.85;6.13;;;10.80;99.90;;;;;;5037280;28;20128;-37
2024/02/17 01:39:31;;;;;;;7.40;6.50;;;10.90;99.90;;;;;;5037595;28;20033;-38
2024/02/17 01:42:00;;;;;;;6.80;6.07;;;10.90;99.90;;;;;;5036381;28;20021;-37
2024/02/17 01:44:26;;;;;;;8.07;6.40;;;10.90;99.90;;;;;;5037799;28;20036;-37
2024/02/17 01:46:52;;;;;;;8.13;6.18;;;10.90;99.90;;;;;;5037999;28;20124;-35
2024/02/17 01:49:20;;;;;;;9.02;6.45;;;10.90;99.90;;;;;;5037980;28;20025;-36
2024/02/17 01:51:46;;;;;;;7.60;5.25;;;10.90;99.90;;;;;;5038371;28;20449;-34
2024/02/17 01:54:12;;;;;;;6.78;6.00;;;10.90;99.90;;;;;;5037827;28;20135;-36
2024/02/17 01:56:39;;;;;;;10.55;6.70;;;10.90;99.90;;;;;;5037789;28;20036;-34
2024/02/17 01:59:05;;;;;;;9.98;6.80;;;10.90;99.90;;;;;;5038749;28;20037;-35
2024/02/17 02:01:31;;;;;;;9.45;7.20;;;10.90;99.90;;;;;;5039118;28;20025;-35
2024/02/17 02:03:57;;;;;;;7.97;6.40;;;10.90;99.90;;;;;;5038080;28;20538;-35
2024/02/17 02:06:24;;;;;;;8.55;6.30;;;10.90;99.90;;;;;;5039054;28;20028;-36
2024/02/17 02:08:50;;;;;;;10.30;7.10;;;10.90;99.90;;;;;;5039134;28;20035;-36
2024/02/17 02:11:25;;;;;;;10.80;6.93;;;10.90;99.90;;;;;;5041043;28;20190;-33
2024/02/17 02:13:51;;;;;;;9.20;7.40;;;10.90;99.90;;;;;;5041171;28;20110;-35
2024/02/17 02:16:16;;;;;;;9.07;6.97;;;10.90;99.90;;;;;;5042187;28;20033;-32
2024/02/17 02:18:42;;;;;;;7.97;6.90;;;10.90;99.90;;;;;;5041575;28;20024;-34
2024/02/17 02:21:08;;;;;;;9.63;7.10;;;10.90;99.90;;;;;;5041666;28;20551;-37
2024/02/17 02:23:35;;;;;;;9.95;7.18;;;10.90;99.90;;;;;;5041874;28;20017;-34
2024/02/17 02:26:01;;;;;;;10.02;6.90;;;10.90;99.90;;;;;;5041588;28;20028;-34
2024/02/17 02:28:27;;;;;;;9.68;6.90;;;10.90;99.90;;;;;;5041575;28;21005;-35
2024/02/17 02:30:55;;;;;;;9.57;6.25;;;10.80;99.90;;;;;;5041933;28;20380;-35
2024/02/17 02:33:20;;;;;;;10.70;7.47;;;10.80;99.90;;;;;;5041018;28;20108;-37
2024/02/17 02:35:46;;;;;;;10.13;6.72;;;10.80;99.90;;;;;;5041855;28;20113;-37
2024/02/17 02:38:12;;;;;;;9.02;6.78;;;10.80;99.90;;;;;;5042030;28;20032;-37
2024/02/17 02:40:37;;;;;;;9.30;7.18;;;10.80;99.90;;;;;;5041103;28;20065;-34
2024/02/17 02:43:04;;;;;;;9.95;6.95;;;10.80;99.90;;;;;;5041707;28;20024;-36
2024/02/17 02:45:31;;;;;;;8.70;6.93;;;10.80;99.90;;;;;;5040156;28;20025;-35
2024/02/17 02:47:56;;;;;;;10.60;7.70;;;10.80;99.90;;;;;;5041650;28;20573;-34
2024/02/17 02:50:22;;;;;;;11.90;7.85;;;10.80;99.90;;;;;;5041171;28;20475;-38
2024/02/17 02:52:48;;;;;;;11.30;8.10;;;10.80;99.90;;;;;;5041498;28;20052;-32
2024/02/17 02:55:13;;;;;;;12.85;9.02;;;10.80;99.90;;;;;;5040889;28;20814;-35
2024/02/17 02:57:39;;;;;;;10.15;7.95;;;10.80;99.90;;;;;;5041197;28;20021;-34
2024/02/17 03:00:06;;;;;;;8.70;7.35;;;10.80;99.90;;;;;;5040884;28;20029;-37
2024/02/17 03:02:31;;;;;;;11.27;8.02;;;10.80;99.90;;;;;;5040674;28;20029;-34
2024/02/17 03:04:57;;;;;;;10.48;8.02;;;10.80;99.90;;;;;;5041004;28;20641;-32
2024/02/17 03:07:23;;;;;;;11.38;8.18;;;10.80;99.90;;;;;;5041414;28;20112;-35
2024/02/17 03:09:48;;;;;;;9.82;7.97;;;10.80;99.90;;;;;;5041406;28;20629;-36
2024/02/17 03:12:14;;;;;;;12.02;7.80;;;10.80;99.90;;;;;;5041029;28;20025;-35
2024/02/17 03:14:42;;;;;;;11.65;8.15;;;10.90;99.90;;;;;;5041332;28;20049;-32
2024/02/17 03:17:07;;;;;;;9.50;7.50;;;10.80;99.90;;;;;;5041390;28;20025;-31
2024/02/17 03:19:36;;;;;;;10.23;7.25;;;10.80;99.90;;;;;;5040381;28;20122;-34
2024/02/17 03:22:02;;;;;;;10.30;7.75;;;10.80;99.90;;;;;;5040084;28;20034;-35
2024/02/17 03:24:27;;;;;;;8.43;7.43;;;10.80;99.90;;;;;;5040608;28;20540;-35
2024/02/17 03:26:55;;;;;;;9.95;7.55;;;10.80;99.90;;;;;;5040979;28;20096;-38
2024/02/17 03:29:21;;;;;;;10.07;7.20;;;10.80;99.90;;;;;;5040669;28;20120;-34
2024/02/17 03:31:47;;;;;;;9.82;7.55;;;10.80;99.90;;;;;;5040570;28;20039;-36
2024/02/17 03:34:13;;;;;;;10.88;7.78;;;10.70;99.90;;;;;;5040160;28;20605;-36
2024/02/17 03:36:39;;;;;;;12.32;8.32;;;10.70;99.90;;;;;;5040926;28;20027;-35
2024/02/17 03:39:08;;;;;;;10.40;7.50;;;10.70;99.90;;;;;;5041204;28;20045;-37
2024/02/17 03:41:35;;;;;;;10.57;7.75;;;10.80;99.90;;;;;;5041059;28;20115;-36
2024/02/17 03:44:08;;;;;;;10.48;7.97;;;10.80;99.90;;;;;;5039581;28;20040;-35
2024/02/17 03:46:33;;;;;;;11.10;7.95;;;10.80;99.90;;;;;;5040283;28;20029;-37
2024/02/17 03:48:59;;;;;;;9.68;7.43;;;10.80;99.90;;;;;;5040000;28;20040;-38
2024/02/17 03:51:25;;;;;;;10.63;8.27;;;10.80;99.90;;;;;;5040650;28;20017;-36
2024/02/17 03:53:51;;;;;;;13.68;8.18;;;10.80;99.90;;;;;;5040526;28;20036;-37
2024/02/17 03:56:17;;;;;;;11.82;8.35;;;10.80;99.90;;;;;;5039473;28;20029;-36
2024/02/17 03:58:42;;;;;;;10.52;8.27;;;10.80;99.90;;;;;;5040712;28;20676;-37
2024/02/17 04:01:08;;;;;;;11.95;8.35;;;10.80;99.90;;;;;;5040515;28;20017;-38
2024/02/17 04:03:34;;;;;;;10.45;7.82;;;10.80;99.90;;;;;;5039655;28;20131;-37
2024/02/17 04:05:59;;;;;;;11.77;8.43;;;10.80;99.90;;;;;;5040761;28;20040;-34
2024/02/17 04:08:25;;;;;;;11.65;7.90;;;10.80;99.90;;;;;;5040123;28;20021;-35
2024/02/17 04:10:50;;;;;;;11.88;7.25;;;10.80;99.90;;;;;;5039405;28;20056;-35
2024/02/17 04:13:17;;;;;;;10.70;7.93;;;10.80;99.90;;;;;;5040365;28;20040;-34
2024/02/17 04:15:43;;;;;;;10.88;8.10;;;10.80;99.90;;;;;;5039917;28;20112;-36
2024/02/17 04:18:09;;;;;;;10.05;7.93;;;10.80;99.90;;;;;;5039014;28;20029;-35
2024/02/17 04:20:39;;;;;;;12.50;8.30;;;10.80;99.90;;;;;;5039995;28;20591;-35
2024/02/17 04:23:08;;;;;;;11.07;8.30;;;10.80;99.90;;;;;;5039888;28;20027;-35
2024/02/17 04:25:37;;;;;;;10.38;8.00;;;10.80;99.90;;;;;;5039763;28;20875;-35
2024/02/17 04:28:04;;;;;;;9.57;7.88;;;10.80;99.90;;;;;;5039620;28;20028;-35
2024/02/17 04:30:30;;;;;;;10.27;7.25;;;10.80;99.90;;;;;;5039692;28;20025;-35
2024/02/17 04:32:56;;;;;;;12.10;8.02;;;10.80;99.90;;;;;;5038694;28;20024;-35
2024/02/17 04:35:25;;;;;;;10.82;7.75;;;10.80;99.90;;;;;;5039216;28;20025;-35
2024/02/17 04:37:51;;;;;;;11.70;7.85;;;10.80;99.90;;;;;;5039489;28;20021;-33
2024/02/17 04:40:17;;;;;;;12.55;8.35;;;10.80;99.90;;;;;;5039070;28;20554;-34
2024/02/17 04:42:43;;;;;;;11.75;8.48;;;10.80;99.90;;;;;;5039360;28;20471;-36
2024/02/17 04:45:09;;;;;;;10.27;7.63;;;10.80;99.90;;;;;;5038785;28;20032;-37
2024/02/17 04:47:35;;;;;;;10.18;7.75;;;10.80;99.90;;;;;;5039000;28;20029;-38
2024/02/17 04:50:01;;;;;;;9.20;6.78;;;10.80;99.90;;;;;;5039032;28;20033;-36
2024/02/17 04:52:26;;;;;;;11.40;7.97;;;10.80;99.90;;;;;;5038637;28;20086;-38
2024/02/17 04:54:52;;;;;;;10.38;6.80;;;10.80;99.90;;;;;;5039467;28;20123;-38
2024/02/17 04:57:18;;;;;;;9.52;7.65;;;10.80;99.90;;;;;;5039821;28;20502;-35
2024/02/17 04:59:44;;;;;;;9.60;7.15;;;10.80;99.90;;;;;;5038879;28;20514;-38
2024/02/17 05:02:10;;;;;;;9.40;7.20;;;10.80;99.90;;;;;;5039518;28;20035;-37
2024/02/17 05:04:36;;;;;;;8.80;7.25;;;10.80;99.90;;;;;;5039352;28;20025;-35
2024/02/17 05:07:01;;;;;;;9.65;7.60;;;10.80;99.90;;;;;;5038959;28;20037;-36
2024/02/17 05:09:27;;;;;;;10.13;7.13;;;10.80;99.90;;;;;;5038694;28;20025;-35
2024/02/17 05:11:55;;;;;;;9.75;7.70;;;10.80;99.90;;;;;;5038589;28;20056;-36
2024/02/17 05:14:25;;;;;;;9.45;7.50;;;10.80;99.90;;;;;;5038480;28;20537;-38
2024/02/17 05:16:50;;;;;;;9.70;6.88;;;10.80;99.90;;;;;;5039842;28;20021;-37
2024/02/17 05:19:16;;;;;;;10.50;7.65;;;10.80;99.90;;;;;;5039153;28;20045;-36
2024/02/17 05:21:42;;;;;;;11.57;7.80;;;10.80;99.90;;;;;;5038758;28;20024;-33
2024/02/17 05:24:08;;;;;;;9.40;6.68;;;10.80;99.90;;;;;;5038389;28;20175;-34
2024/02/17 05:26:35;;;;;;;9.15;6.68;;;10.80;99.90;;;;;;5038552;28;20028;-36
2024/02/17 05:29:05;;;;;;;8.73;6.65;;;10.80;99.90;;;;;;5038284;28;20039;-36
2024/02/17 05:31:31;;;;;;;8.88;6.55;;;10.80;99.90;;;;;;5039470;28;20025;-33
2024/02/17 05:33:57;;;;;;;9.13;7.18;;;10.80;99.90;;;;;;5038398;28;20055;-37
2024/02/17 05:36:22;;;;;;;9.63;6.88;;;10.80;99.90;;;;;;5037919;28;20572;-37
2024/02/17 05:38:48;;;;;;;10.82;7.35;;;10.80;99.90;;;;;;5039563;28;20025;-36
2024/02/17 05:41:14;;;;;;;9.60;7.10;;;10.80;99.90;;;;;;5038378;28;20025;-37
2024/02/17 05:43:39;;;;;;;10.48;6.85;;;10.80;99.90;;;;;;5041664;28;20025;-35
2024/02/17 05:46:05;;;;;;;12.15;7.63;;;10.70;99.90;;;;;;5042927;28;20056;-36
2024/02/17 05:48:30;;;;;;;9.05;6.40;;;10.80;99.90;;;;;;5042347;28;20059;-37
2024/02/17 05:50:56;;;;;;;10.75;7.63;;;10.70;99.90;;;;;;5043146;28;20033;-36
2024/02/17 05:53:21;;;;;;;9.38;6.85;;;10.80;99.90;;;;;;5043313;28;20100;-34
2024/02/17 05:55:47;;;;;;;9.30;6.95;;;10.70;99.90;;;;;;5042234;28;20690;-36
2024/02/17 05:58:13;;;;;;;8.88;6.47;;;10.70;99.90;;;;;;5042946;28;20762;-35
2024/02/17 06:00:39;;;;;;;9.43;6.60;;;10.80;99.90;;;;;;5042193;28;20028;-36
2024/02/17 06:03:04;;;;;;;9.63;6.43;;;10.80;99.90;;;;;;5041632;28;20029;-34
2024/02/17 06:05:32;;;;;;;7.82;6.63;;;10.80;99.90;;;;;;5042722;28;20082;-36
2024/02/17 06:07:58;;;;;;;10.38;6.63;;;10.80;99.90;;;;;;5042842;28;20021;-37
2024/02/17 06:10:23;;;;;;;8.60;6.28;;;10.80;99.90;;;;;;5041566;28;20045;-38
2024/02/17 06:12:49;;;;;;;8.07;6.20;;;10.80;99.90;;;;;;5042505;28;20025;-38
2024/02/17 06:15:15;;;;;;;9.27;6.82;;;10.80;99.90;;;;;;5041895;28;20534;-36
2024/02/17 06:17:46;;;;;;;8.30;6.00;;;10.80;99.90;;;;;;5042012;28;20029;-36
2024/02/17 06:23:04;;;;;;;7.65;6.35;;;10.80;99.90;;;;;;5025480;28;20040;-35
2024/02/17 06:25:30;;;;;;;10.55;6.72;;;10.80;99.90;;;;;;5041538;28;20434;-35
2024/02/17 06:27:56;;;;;;;8.10;6.60;;;10.80;99.90;;;;;;5042101;28;20032;-35
2024/02/17 06:30:21;;;;;;;10.02;7.65;;;10.80;99.90;;;;;;5042347;28;20029;-38
2024/02/17 06:32:47;;;;;;;8.43;6.43;;;10.80;99.90;;;;;;5041542;28;20025;-36
2024/02/17 06:35:13;;;;;;;10.63;7.25;;;10.80;99.90;;;;;;5041521;28;20033;-33
2024/02/17 06:37:40;;;;;;;9.98;6.50;;;10.80;99.90;;;;;;5041489;28;20021;-36
2024/02/17 06:40:06;;;;;;;8.52;6.43;;;10.80;99.90;;;;;;5041860;28;20037;-36
2024/02/17 06:42:32;;;;;;;6.88;6.03;;;10.70;99.90;;;;;;5041295;28;20029;-33
2024/02/17 06:44:58;;;;;;;9.00;6.28;;;10.70;99.90;;;;;;5041127;28;20521;-37
2024/02/17 06:47:23;;;;;;;7.28;5.90;;;10.70;99.90;;;;;;5041210;28;20356;-36
2024/02/17 06:49:49;;;;;;;8.13;6.38;;;10.80;99.90;;;;;;5041605;28;20116;-36
2024/02/17 06:52:17;;;;;;;8.30;6.40;;;10.70;99.90;;;;;;5040087;28;20057;-37
2024/02/17 06:54:43;;;;;;;8.07;6.43;;;10.70;99.90;;;;;;5040165;28;20037;-36
2024/02/17 06:57:08;;;;;;;7.20;6.45;;;10.70;99.90;;;;;;5040152;28;20024;-36
2024/02/17 06:59:37;;;;;;;9.15;6.20;;;10.70;99.90;;;;;;5039284;28;20037;-36
2024/02/17 07:02:03;;;;;;;7.43;6.28;;;10.70;99.90;;;;;;5039381;28;20555;-37
2024/02/17 07:04:29;;;;;;;7.60;6.50;;;10.70;99.90;;;;;;5040325;28;20046;-33
2024/02/17 07:06:54;;;;;;;7.63;5.88;;;10.70;99.90;;;;;;5038249;28;20040;-37
2024/02/17 07:09:22;;;;;;;6.55;5.88;;;10.70;99.90;;;;;;5039775;28;20078;-36
2024/02/17 07:11:48;;;;;;;7.95;6.13;;;10.70;99.90;;;;;;5040675;28;20102;-34
2024/02/17 07:14:13;;;;;;;8.27;6.35;;;10.70;99.90;;;;;;5039601;28;20871;-34
2024/02/17 07:16:39;;;;;;;8.18;5.97;;;10.70;99.90;;;;;;5040925;28;20064;-36
2024/02/17 07:19:04;;;;;;;10.63;7.63;;;10.70;99.90;;;;;;5039997;28;20049;-37
2024/02/17 07:21:30;;;;;;;7.63;6.20;;;10.70;99.90;;;;;;5040260;28;20495;-32
2024/02/17 07:23:56;;;;;;;7.28;6.30;;;10.70;99.90;;;;;;5040252;28;20606;-36
2024/02/17 07:26:24;;;;;;;7.55;5.88;;;10.70;99.90;;;;;;5040180;28;20043;-35
2024/02/17 07:28:49;;;;;;;9.98;7.28;;;10.70;99.90;;;;;;5039893;28;20105;-38
2024/02/17 07:31:16;;;;;;;8.45;6.53;;;10.70;99.90;;;;;;5040177;28;20055;-38
2024/02/17 07:33:49;;;;;;;7.25;6.28;;;10.70;99.90;;;;;;5040020;28;20024;-32
2024/02/17 07:36:14;;;;;;;8.48;6.38;;;10.70;99.90;;;;;;5040223;28;20324;-37
2024/02/17 07:38:40;;;;;;;8.68;6.32;;;10.70;99.90;;;;;;5039859;28;20574;-32
2024/02/17 07:41:06;;;;;;;7.78;6.43;;;10.70;99.90;;;;;;5039456;28;20027;-34
2024/02/17 07:43:33;;;;;;;8.82;6.65;;;10.70;99.90;;;;;;5039652;28;20024;-37
2024/02/17 07:45:58;;;;;;;8.27;7.15;;;10.70;99.90;;;;;;5039954;28;20035;-35
2024/02/17 07:48:27;;;;;;;8.32;6.75;;;10.80;99.90;;;;;;5038647;28;20025;-37
2024/02/17 07:50:53;;;;;;;8.88;6.90;;;10.80;99.90;;;;;;5035818;28;20021;-36
2024/02/17 07:53:18;;;;;;;10.02;7.03;;;10.80;99.90;;;;;;5039773;28;20032;-32
2024/02/17 07:55:44;;;;;;;8.90;6.82;;;10.90;99.90;;;;;;5038739;28;20208;-32
2024/02/17 07:58:09;;;;;;;9.02;6.78;;;10.90;99.90;;;;;;5039263;28;20123;-33
2024/02/17 08:00:35;;;;;;;10.18;7.28;;;10.90;99.90;;;;;;5040188;28;20075;-37
2024/02/17 08:03:01;;;;;;;9.07;7.15;;;10.90;99.90;;;;;;5018538;28;20036;-35
2024/02/17 08:05:27;;;;;;;8.25;7.13;;;10.90;99.90;;;;;;5033909;28;20064;-38
2024/02/17 08:07:54;;;;;;;10.05;6.85;;;11.00;99.90;;;;;;5040626;28;20029;-36
2024/02/17 08:10:19;;;;;;;8.80;7.13;;;11.10;99.90;;;;;;5039245;28;20782;-38
2024/02/17 08:12:45;;;;;;;7.63;6.30;;;11.10;99.90;;;;;;5040447;28;20032;-35
2024/02/17 08:15:11;;;;;;;7.32;6.05;;;11.10;99.90;;;;;;5039959;28;20029;-35
2024/02/17 08:17:39;;;;;;;8.05;6.28;;;11.20;99.90;;;;;;5039198;28;20033;-35
2024/02/17 08:20:05;;;;;;;7.85;6.05;;;11.20;99.90;;;;;;5039586;28;20112;-37
2024/02/17 08:22:31;;;;;;;8.00;6.43;;;11.20;99.90;;;;;;5039671;28;20040;-36
2024/02/17 08:24:56;;;;;;;7.20;5.88;;;11.30;99.90;;;;;;5038830;28;20037;-34
2024/02/17 08:27:28;;;;;;;6.93;5.80;;;11.30;99.90;;;;;;5039423;28;20076;-36
2024/02/17 08:29:53;;;;;;;6.97;5.57;;;11.30;99.90;;;;;;5039655;28;20033;-39
2024/02/17 08:32:19;;;;;;;8.75;6.03;;;11.30;99.90;;;;;;5039272;28;20464;-35
2024/02/17 08:34:44;;;;;;;7.15;5.55;;;11.40;99.90;;;;;;5040243;28;20388;-36
2024/02/17 08:37:12;;;;;;;8.05;6.10;;;11.40;99.90;;;;;;5038640;28;20036;-37
2024/02/17 08:39:37;;;;;;;8.75;6.25;;;11.50;99.90;;;;;;5039822;28;20033;-34
2024/02/17 08:42:03;;;;;;;7.75;6.40;;;11.50;99.90;;;;;;5039259;28;20099;-37
2024/02/17 08:44:29;;;;;;;7.68;5.68;;;11.60;99.90;;;;;;5038949;28;20122;-40
2024/02/17 08:46:54;;;;;;;8.82;5.78;;;11.60;99.90;;;;;;5039680;28;20025;-34
2024/02/17 08:49:20;;;;;;;5.88;5.00;;;11.70;99.90;;;;;;5039626;28;20488;-37
2024/02/17 08:51:46;;;;;;;7.32;5.88;;;11.70;99.90;;;;;;5039390;28;20570;-37
2024/02/17 08:54:15;;;;;;;10.07;5.78;;;11.80;99.90;;;;;;5039400;28;20021;-35
2024/02/17 08:56:41;;;;;;;8.20;5.97;;;11.80;99.90;;;;;;5039343;28;20434;-38
2024/02/17 08:59:07;;;;;;;6.50;5.38;;;11.80;99.90;;;;;;5038653;28;20502;-36
2024/02/17 09:01:32;;;;;;;10.18;6.95;;;11.90;99.90;;;;;;5039695;28;20021;-37
2024/02/17 09:04:01;;;;;;;9.93;6.88;;;11.90;99.90;;;;;;5040146;28;20104;-38
2024/02/17 09:06:29;;;;;;;9.00;6.93;;;11.90;99.90;;;;;;5038578;28;20024;-35
2024/02/17 09:08:54;;;;;;;12.52;7.80;;;11.90;99.90;;;;;;5028060;28;20537;-37
2024/02/17 09:11:21;;;;;;;11.85;7.68;;;11.90;99.90;;;;;;5038323;28;20056;-35
2024/02/17 09:13:48;;;;;;;10.23;7.78;;;11.90;99.90;;;;;;5039058;28;20692;-37
2024/02/17 09:16:14;;;;;;;11.40;7.30;;;11.90;99.90;;;;;;5038615;28;20041;-37
2024/02/17 09:18:40;;;;;;;9.60;7.00;;;11.90;99.90;;;;;;5038944;28;20353;-38
2024/02/17 09:21:05;;;;;;;10.40;6.85;;;11.90;99.90;;;;;;5038872;28;20033;-36
2024/02/17 09:23:31;;;;;;;11.23;7.10;;;11.90;99.90;;;;;;5038744;28;20881;-37
2024/02/17 09:25:56;;;;;;;10.45;7.75;;;12.00;99.90;;;;;;5039273;28;20751;-39
2024/02/17 09:28:22;;;;;;;9.80;7.00;;;12.00;99.90;;;;;;5037196;28;20575;-35
2024/02/17 09:30:47;;;;;;;8.23;6.10;;;12.00;99.90;;;;;;5039078;28;20446;-34
2024/02/17 09:33:13;;;;;;;8.82;6.68;;;12.10;99.90;;;;;;5038926;28;20025;-38
2024/02/17 09:35:39;;;;;;;7.95;6.70;;;12.10;99.90;;;;;;5038061;28;20032;-37
2024/02/17 09:38:04;;;;;;;8.38;6.03;;;12.20;99.90;;;;;;5038324;28;20021;-37
2024/02/17 09:40:30;;;;;;;7.32;6.25;;;12.20;99.90;;;;;;5037736;28;20059;-36
2024/02/17 09:42:55;;;;;;;8.30;6.13;;;12.30;99.90;;;;;;5038779;28;20025;-36
2024/02/17 09:45:23;;;;;;;10.43;6.30;;;12.30;99.90;;;;;;5038727;28;20101;-38
2024/02/17 09:47:50;;;;;;;9.15;6.30;;;12.40;99.90;;;;;;5038328;28;20569;-36
2024/02/17 09:50:18;;;;;;;5.93;5.30;;;12.40;99.90;;;;;;5038244;28;20029;-38
2024/02/17 09:52:47;;;;;;;7.82;5.93;;;12.40;99.90;;;;;;5038337;28;20741;-37
2024/02/17 09:55:13;;;;;;;7.13;6.10;;;12.40;99.90;;;;;;5038446;28;20078;-37
2024/02/17 09:57:38;;;;;;;7.10;5.82;;;12.50;99.90;;;;;;5038903;28;20029;-36
2024/02/17 10:00:09;;;;;;;9.45;7.03;;;12.60;99.90;;;;;;5038853;28;20060;-33
2024/02/17 10:02:36;;;;;;;8.50;6.55;;;12.60;99.90;;;;;;5038752;28;20021;-37
2024/02/17 10:05:02;;;;;;;11.20;7.60;;;12.60;99.90;;;;;;5038370;28;20128;-36
2024/02/17 10:07:29;;;;;;;9.50;6.78;;;12.60;99.90;;;;;;5037616;28;20021;-32
2024/02/17 10:09:54;;;;;;;9.63;6.63;;;12.60;99.90;;;;;;5038388;28;20112;-34
2024/02/17 10:12:20;;;;;;;7.90;6.82;;;12.60;99.90;;;;;;5018518;28;20049;-36
2024/02/17 10:14:51;;;;;;;8.82;6.97;;;12.60;99.90;;;;;;5032797;28;20071;-38
2024/02/17 10:17:17;;;;;;;13.43;7.95;;;12.70;99.90;;;;;;5037789;28;20046;-32
2024/02/17 10:19:43;;;;;;;10.32;7.63;;;12.70;99.90;;;;;;5038026;28;20489;-35
2024/02/17 10:22:12;;;;;;;8.20;6.57;;;12.70;99.90;;;;;;5037979;28;20075;-37
2024/02/17 10:24:38;;;;;;;8.65;7.05;;;12.70;99.90;;;;;;5037725;28;20029;-33
2024/02/17 10:27:05;;;;;;;7.60;6.80;;;12.80;99.90;;;;;;5038169;28;20075;-37
2024/02/17 10:29:32;;;;;;;7.38;6.22;;;12.80;99.90;;;;;;5038773;28;20087;-37
2024/02/17 10:31:59;;;;;;;7.35;6.10;;;12.80;99.90;;;;;;5041454;28;20032;-36
2024/02/17 10:34:25;;;;;;;7.03;6.22;;;12.80;99.90;;;;;;5040941;28;20387;-35
2024/02/17 10:36:51;;;;;;;9.93;7.22;;;12.90;99.90;;;;;;5029808;28;20021;-36
2024/02/17 10:39:19;;;;;;;8.73;6.15;;;12.90;99.90;;;;;;5041711;28;20032;-37
2024/02/17 10:41:47;;;;;;;7.78;6.53;;;13.00;99.90;;;;;;5041777;28;20021;-36
2024/02/17 10:44:13;;;;;;;7.93;6.57;;;13.00;99.90;;;;;;5040563;28;20629;-37
2024/02/17 10:46:45;;;;;;;8.93;7.20;;;13.00;99.90;;;;;;5041723;28;20020;-37
2024/02/17 10:49:40;;;;;;;7.88;6.43;;;13.00;99.90;;;;;;5041879;28;20025;-36
2024/02/17 10:52:10;;;;;;;9.55;6.43;;;13.10;99.90;;;;;;5041265;28;20033;-33
2024/02/17 10:54:49;;;;;;;8.30;6.25;;;13.00;99.90;;;;;;5041821;28;20029;-38
2024/02/17 10:57:19;;;;;;;9.27;5.95;;;13.10;99.90;;;;;;5038949;28;20090;-39
2024/02/17 10:59:48;;;;;;;9.68;6.72;;;13.10;99.90;;;;;;5041632;28;20029;-38
2024/02/17 11:02:15;;;;;;;9.88;7.22;;;13.20;99.90;;;;;;5041490;28;20036;-35
2024/02/17 11:04:43;;;;;;;7.28;5.68;;;13.20;99.90;;;;;;5041933;28;20108;-38
2024/02/17 11:07:10;;;;;;;10.85;6.80;;;13.30;99.90;;;;;;5040149;28;20033;-36
2024/02/17 11:09:36;;;;;;;9.35;7.25;;;13.30;99.90;;;;;;5042098;28;20144;-34
2024/02/17 11:12:32;;;;;;;7.45;6.13;;;13.30;99.90;;;;;;5040120;28;20098;-34
2024/02/17 11:15:00;;;;;;;7.78;6.10;;;13.30;99.90;;;;;;5041296;28;20718;-35
2024/02/17 11:17:29;;;;;;;8.55;6.70;;;13.30;99.90;;;;;;5040631;28;20482;-38
2024/02/17 11:20:06;;;;;;;7.75;6.20;;;13.30;99.90;;;;;;5040986;28;20136;-36
2024/02/17 11:22:34;;;;;;;7.93;6.40;;;13.40;99.90;;;;;;5040455;28;20029;-38
2024/02/17 11:25:01;;;;;;;7.78;6.00;;;13.40;99.90;;;;;;5040920;28;20037;-38
2024/02/17 11:27:27;;;;;;;6.60;5.90;;;13.40;99.90;;;;;;5039599;28;20040;-37
2024/02/17 11:30:00;;;;;;;8.10;6.45;;;13.40;99.90;;;;;;5040144;28;20029;-37
2024/02/17 11:32:28;;;;;;;8.40;6.53;;;13.40;99.90;;;;;;5040487;28;20051;-37
2024/02/17 11:34:58;;;;;;;7.55;6.50;;;13.50;99.90;;;;;;5039608;28;20064;-37
2024/02/17 11:37:26;;;;;;;8.43;5.93;;;13.50;99.90;;;;;;5040372;28;20025;-37
2024/02/17 11:39:52;;;;;;;7.35;5.88;;;13.50;99.90;;;;;;5040827;28;20041;-37
2024/02/17 11:42:21;;;;;;;7.25;5.72;;;13.50;99.90;;;;;;5040181;28;20039;-35
2024/02/17 11:44:47;;;;;;;6.18;5.28;;;13.50;99.90;;;;;;5041443;28;20056;-38
2024/02/17 11:47:13;;;;;;;11.60;7.05;;;13.60;99.90;;;;;;5040385;28;20025;-38
2024/02/17 11:49:42;;;;;;;8.15;6.45;;;13.60;99.90;;;;;;5041138;28;20049;-36
2024/02/17 11:52:08;;;;;;;7.72;5.65;;;13.60;99.90;;;;;;5040076;28;20029;-37
2024/02/17 11:54:38;;;;;;;7.15;5.75;;;13.60;99.90;;;;;;5039666;28;20025;-36
2024/02/17 11:57:05;;;;;;;12.80;7.53;;;13.60;99.90;;;;;;5040089;28;20024;-37
2024/02/17 11:59:31;;;;;;;6.38;5.60;;;13.60;99.90;;;;;;5040334;28;20095;-37
2024/02/17 12:01:59;;;;;;;8.15;5.75;;;13.60;99.90;;;;;;5039100;28;20140;-39
2024/02/17 12:04:25;;;;;;;9.27;6.10;;;13.50;99.90;;;;;;5039732;28;20040;-37
2024/02/17 12:06:51;;;;;;;8.88;6.68;;;13.50;99.90;;;;;;5040106;28;20025;-39
2024/02/17 12:09:20;;;;;;;7.95;6.32;;;13.50;99.90;;;;;;5038729;28;20021;-38
2024/02/17 12:11:46;;;;;;;6.00;5.38;;;13.50;99.90;;;;;;5040335;28;20218;-37
2024/02/17 12:14:12;;;;;;;10.30;7.25;;;13.50;99.90;;;;;;5039724;28;20814;-38
2024/02/17 12:16:38;;;;;;;8.93;7.28;;;13.50;99.90;;;;;;5055002;28;20051;-36
2024/02/17 12:19:10;;;;;;;9.55;6.15;;;13.50;99.90;;;;;;5044303;28;20864;-37
2024/02/17 12:21:37;;;;;;;7.68;6.25;;;13.40;99.90;;;;;;5039829;28;20041;-37
2024/02/17 12:24:04;;;;;;;8.63;7.00;;;13.40;99.90;;;;;;5039666;28;20031;-36
2024/02/17 12:26:32;;;;;;;8.52;7.00;;;13.40;99.90;;;;;;5040165;28;20484;-38
2024/02/17 12:29:03;;;;;;;7.97;6.60;;;13.40;99.90;;;;;;5039979;28;20819;-36
2024/02/17 12:31:33;;;;;;;8.95;6.80;;;13.30;99.90;;;;;;5039447;28;20036;-34
2024/02/17 12:33:58;;;;;;;8.45;7.55;;;13.40;99.90;;;;;;5040048;28;20104;-37
2024/02/17 12:36:24;;;;;;;7.72;6.18;;;13.40;99.90;;;;;;5039559;28;20083;-38
2024/02/17 12:39:04;;;;;;;8.20;6.50;;;13.50;99.90;;;;;;5039771;28;20187;-37
2024/02/17 12:41:30;;;;;;;9.95;6.82;;;13.60;99.90;;;;;;5040587;28;20065;-35
2024/02/17 12:43:56;;;;;;;9.45;6.72;;;13.70;99.90;;;;;;5039613;28;20104;-37